TAF LEVT
AMD LEVT 080210Z 0802/0824 26009KT 7000 SCT020 BKN035 TX03/0806Z TN01/0818Z TEMPO 0802/0806 4000 RA TEMPO 0802/0814 27015G25KT TEMPO 0814/0824 27018G28KT 3000 SHRA SCT020TCU PROB30 TEMPO 0818/0824 TS SCT020CB=
METAR LEVT
LEVT 080330Z 22003KT 160V310 6000 SCT032 BKN043 BKN069 04/02 Q1008=
LEVT 080300Z 22006KT 180V260 6000 BKN035 BKN042 03/02 Q1008=
LEVT 080230Z 29008KT 4100 -RA VV016 03/02 Q1008 RERA=
LEVT 080200Z 34013G25KT 300V020 3600 -RA BR FEW020 SCT039 BKN046 04/03 Q1008=
LEVT 080130Z VRB02KT 7000 FEW025 SCT060 05/05 Q1008 RERA=
WC LEVT
WS LEVT
WV LEVT